sensor_id;sensor_type;location;lat;lon;timestamp;P1;durP1;ratioP1;P2;durP2;ratioP2
41709;SDS011;59402;48.396;-4.472;2023-05-06T00:02:00;27.95;;;5.38;;
41709;SDS011;59402;48.396;-4.472;2023-05-06T00:04:26;37.60;;;6.13;;
41709;SDS011;59402;48.396;-4.472;2023-05-06T00:06:52;30.23;;;6.28;;
41709;SDS011;59402;48.396;-4.472;2023-05-06T00:09:18;34.00;;;5.78;;
41709;SDS011;59402;48.396;-4.472;2023-05-06T00:11:45;37.97;;;6.40;;
41709;SDS011;59402;48.396;-4.472;2023-05-06T00:14:11;29.48;;;5.13;;
41709;SDS011;59402;48.396;-4.472;2023-05-06T00:16:37;27.20;;;4.97;;
41709;SDS011;59402;48.396;-4.472;2023-05-06T00:19:03;25.55;;;5.55;;
41709;SDS011;59402;48.396;-4.472;2023-05-06T00:21:28;28.40;;;5.40;;
41709;SDS011;59402;48.396;-4.472;2023-05-06T00:23:54;30.67;;;6.03;;
41709;SDS011;59402;48.396;-4.472;2023-05-06T00:26:20;38.53;;;5.88;;
41709;SDS011;59402;48.396;-4.472;2023-05-06T00:28:46;30.80;;;6.53;;
41709;SDS011;59402;48.396;-4.472;2023-05-06T00:31:11;38.90;;;6.60;;
41709;SDS011;59402;48.396;-4.472;2023-05-06T00:33:37;29.98;;;5.53;;
41709;SDS011;59402;48.396;-4.472;2023-05-06T00:36:03;38.97;;;6.20;;
41709;SDS011;59402;48.396;-4.472;2023-05-06T00:38:29;25.05;;;5.32;;
41709;SDS011;59402;48.396;-4.472;2023-05-06T00:40:55;36.83;;;6.25;;
41709;SDS011;59402;48.396;-4.472;2023-05-06T00:43:20;32.90;;;5.20;;
41709;SDS011;59402;48.396;-4.472;2023-05-06T00:45:46;36.33;;;6.10;;
41709;SDS011;59402;48.396;-4.472;2023-05-06T00:48:12;28.45;;;5.72;;
41709;SDS011;59402;48.396;-4.472;2023-05-06T00:50:39;27.77;;;5.30;;
41709;SDS011;59402;48.396;-4.472;2023-05-06T00:53:05;31.55;;;5.18;;
41709;SDS011;59402;48.396;-4.472;2023-05-06T00:55:33;29.75;;;5.47;;
41709;SDS011;59402;48.396;-4.472;2023-05-06T00:57:59;35.33;;;6.03;;
41709;SDS011;59402;48.396;-4.472;2023-05-06T01:00:25;33.28;;;4.93;;
41709;SDS011;59402;48.396;-4.472;2023-05-06T01:02:51;27.58;;;5.15;;
41709;SDS011;59402;48.396;-4.472;2023-05-06T01:05:17;36.85;;;5.35;;
41709;SDS011;59402;48.396;-4.472;2023-05-06T01:13:22;26.35;;;5.20;;
41709;SDS011;59402;48.396;-4.472;2023-05-06T01:15:54;27.25;;;4.53;;
41709;SDS011;59402;48.396;-4.472;2023-05-06T01:18:21;31.75;;;4.80;;
41709;SDS011;59402;48.396;-4.472;2023-05-06T01:20:49;22.25;;;3.75;;
41709;SDS011;59402;48.396;-4.472;2023-05-06T01:25:41;23.90;;;4.20;;
41709;SDS011;59402;48.396;-4.472;2023-05-06T01:28:08;29.42;;;4.40;;
41709;SDS011;59402;48.396;-4.472;2023-05-06T01:30:50;25.17;;;4.10;;
41709;SDS011;59402;48.396;-4.472;2023-05-06T01:33:43;22.20;;;4.38;;
41709;SDS011;59402;48.396;-4.472;2023-05-06T01:36:25;25.58;;;4.30;;
41709;SDS011;59402;48.396;-4.472;2023-05-06T01:41:40;31.80;;;4.97;;
41709;SDS011;59402;48.396;-4.472;2023-05-06T01:44:08;42.47;;;5.88;;
41709;SDS011;59402;48.396;-4.472;2023-05-06T01:46:35;42.10;;;6.03;;
41709;SDS011;59402;48.396;-4.472;2023-05-06T01:49:03;26.55;;;5.07;;
41709;SDS011;59402;48.396;-4.472;2023-05-06T01:51:33;24.00;;;4.85;;
41709;SDS011;59402;48.396;-4.472;2023-05-06T01:53:59;33.65;;;5.57;;
41709;SDS011;59402;48.396;-4.472;2023-05-06T01:56:25;23.58;;;5.07;;
41709;SDS011;59402;48.396;-4.472;2023-05-06T01:58:54;33.05;;;5.45;;
41709;SDS011;59402;48.396;-4.472;2023-05-06T02:01:21;31.05;;;5.13;;
41709;SDS011;59402;48.396;-4.472;2023-05-06T02:03:47;24.27;;;4.97;;
41709;SDS011;59402;48.396;-4.472;2023-05-06T02:06:13;31.83;;;5.80;;
41709;SDS011;59402;48.396;-4.472;2023-05-06T02:08:39;27.85;;;4.97;;
41709;SDS011;59402;48.396;-4.472;2023-05-06T02:11:10;28.98;;;5.47;;
41709;SDS011;59402;48.396;-4.472;2023-05-06T02:13:36;37.65;;;6.40;;
41709;SDS011;59402;48.396;-4.472;2023-05-06T02:16:03;33.83;;;5.63;;
41709;SDS011;59402;48.396;-4.472;2023-05-06T02:18:30;29.47;;;5.43;;
41709;SDS011;59402;48.396;-4.472;2023-05-06T02:20:56;38.42;;;6.10;;
41709;SDS011;59402;48.396;-4.472;2023-05-06T02:23:21;34.45;;;5.43;;
41709;SDS011;59402;48.396;-4.472;2023-05-06T02:25:47;43.30;;;6.28;;
41709;SDS011;59402;48.396;-4.472;2023-05-06T02:28:14;40.60;;;5.95;;
41709;SDS011;59402;48.396;-4.472;2023-05-06T02:30:41;36.90;;;6.28;;
41709;SDS011;59402;48.396;-4.472;2023-05-06T02:33:06;30.13;;;5.70;;
41709;SDS011;59402;48.396;-4.472;2023-05-06T02:35:32;35.15;;;5.40;;
41709;SDS011;59402;48.396;-4.472;2023-05-06T02:37:58;33.25;;;6.90;;
41709;SDS011;59402;48.396;-4.472;2023-05-06T02:40:25;29.92;;;5.07;;
41709;SDS011;59402;48.396;-4.472;2023-05-06T02:42:51;35.13;;;7.07;;
41709;SDS011;59402;48.396;-4.472;2023-05-06T02:45:17;33.05;;;5.03;;
41709;SDS011;59402;48.396;-4.472;2023-05-06T02:47:42;22.90;;;5.50;;
41709;SDS011;59402;48.396;-4.472;2023-05-06T02:50:09;33.28;;;5.40;;
41709;SDS011;59402;48.396;-4.472;2023-05-06T02:52:34;30.90;;;5.53;;
41709;SDS011;59402;48.396;-4.472;2023-05-06T02:55:00;30.88;;;5.07;;
41709;SDS011;59402;48.396;-4.472;2023-05-06T02:57:26;30.88;;;5.65;;
41709;SDS011;59402;48.396;-4.472;2023-05-06T02:59:52;25.20;;;4.90;;
41709;SDS011;59402;48.396;-4.472;2023-05-06T03:02:18;25.65;;;5.07;;
41709;SDS011;59402;48.396;-4.472;2023-05-06T03:04:43;27.90;;;4.70;;
41709;SDS011;59402;48.396;-4.472;2023-05-06T03:07:09;29.42;;;5.40;;
41709;SDS011;59402;48.396;-4.472;2023-05-06T03:09:35;27.50;;;5.13;;
41709;SDS011;59402;48.396;-4.472;2023-05-06T03:12:01;35.90;;;5.40;;
41709;SDS011;59402;48.396;-4.472;2023-05-06T03:14:27;24.77;;;4.50;;
41709;SDS011;59402;48.396;-4.472;2023-05-06T03:16:53;24.23;;;4.65;;
41709;SDS011;59402;48.396;-4.472;2023-05-06T03:19:19;24.25;;;4.32;;
41709;SDS011;59402;48.396;-4.472;2023-05-06T03:21:45;33.03;;;5.70;;
41709;SDS011;59402;48.396;-4.472;2023-05-06T03:24:10;26.15;;;4.20;;
41709;SDS011;59402;48.396;-4.472;2023-05-06T03:26:37;28.58;;;5.03;;
41709;SDS011;59402;48.396;-4.472;2023-05-06T03:29:04;28.67;;;5.20;;
41709;SDS011;59402;48.396;-4.472;2023-05-06T03:31:30;21.83;;;4.63;;
41709;SDS011;59402;48.396;-4.472;2023-05-06T03:33:57;26.10;;;4.85;;
41709;SDS011;59402;48.396;-4.472;2023-05-06T03:36:23;23.33;;;5.18;;
41709;SDS011;59402;48.396;-4.472;2023-05-06T03:38:51;29.13;;;4.78;;
41709;SDS011;59402;48.396;-4.472;2023-05-06T03:41:17;20.45;;;3.72;;
41709;SDS011;59402;48.396;-4.472;2023-05-06T03:43:44;25.02;;;3.65;;
41709;SDS011;59402;48.396;-4.472;2023-05-06T03:46:11;26.20;;;3.58;;
41709;SDS011;59402;48.396;-4.472;2023-05-06T03:48:37;21.85;;;3.42;;
41709;SDS011;59402;48.396;-4.472;2023-05-06T03:51:07;20.85;;;3.60;;
41709;SDS011;59402;48.396;-4.472;2023-05-06T03:53:32;21.67;;;3.47;;
41709;SDS011;59402;48.396;-4.472;2023-05-06T03:55:59;21.38;;;3.38;;
41709;SDS011;59402;48.396;-4.472;2023-05-06T03:58:26;19.13;;;3.40;;
41709;SDS011;59402;48.396;-4.472;2023-05-06T04:00:51;13.68;;;2.55;;
41709;SDS011;59402;48.396;-4.472;2023-05-06T04:03:17;19.88;;;3.00;;
41709;SDS011;59402;48.396;-4.472;2023-05-06T04:05:47;27.45;;;3.88;;
41709;SDS011;59402;48.396;-4.472;2023-05-06T04:08:15;24.15;;;4.60;;
41709;SDS011;59402;48.396;-4.472;2023-05-06T04:10:42;26.20;;;4.28;;
41709;SDS011;59402;48.396;-4.472;2023-05-06T04:13:15;22.83;;;4.50;;
41709;SDS011;59402;48.396;-4.472;2023-05-06T04:15:43;26.25;;;4.65;;
41709;SDS011;59402;48.396;-4.472;2023-05-06T04:18:13;28.48;;;5.25;;
41709;SDS011;59402;48.396;-4.472;2023-05-06T04:20:45;27.60;;;5.35;;
41709;SDS011;59402;48.396;-4.472;2023-05-06T04:23:12;32.42;;;4.90;;
41709;SDS011;59402;48.396;-4.472;2023-05-06T04:25:38;29.00;;;5.72;;
41709;SDS011;59402;48.396;-4.472;2023-05-06T04:28:07;29.60;;;5.50;;
41709;SDS011;59402;48.396;-4.472;2023-05-06T04:30:35;27.15;;;5.65;;
41709;SDS011;59402;48.396;-4.472;2023-05-06T04:33:00;27.85;;;4.93;;
41709;SDS011;59402;48.396;-4.472;2023-05-06T04:35:28;40.85;;;5.65;;
41709;SDS011;59402;48.396;-4.472;2023-05-06T04:37:55;24.08;;;5.18;;
41709;SDS011;59402;48.396;-4.472;2023-05-06T04:40:25;28.55;;;5.15;;
41709;SDS011;59402;48.396;-4.472;2023-05-06T04:42:52;31.05;;;6.35;;
41709;SDS011;59402;48.396;-4.472;2023-05-06T04:45:22;26.85;;;6.45;;
41709;SDS011;59402;48.396;-4.472;2023-05-06T04:47:50;49.25;;;7.28;;
41709;SDS011;59402;48.396;-4.472;2023-05-06T04:50:17;45.10;;;7.28;;
41709;SDS011;59402;48.396;-4.472;2023-05-06T04:52:43;31.98;;;5.40;;
41709;SDS011;59402;48.396;-4.472;2023-05-06T04:55:09;31.42;;;5.65;;
41709;SDS011;59402;48.396;-4.472;2023-05-06T04:57:37;31.48;;;5.50;;
41709;SDS011;59402;48.396;-4.472;2023-05-06T05:00:03;36.30;;;7.07;;
41709;SDS011;59402;48.396;-4.472;2023-05-06T05:02:29;41.53;;;6.82;;
41709;SDS011;59402;48.396;-4.472;2023-05-06T05:04:55;42.80;;;6.40;;
41709;SDS011;59402;48.396;-4.472;2023-05-06T05:07:21;27.50;;;6.25;;
41709;SDS011;59402;48.396;-4.472;2023-05-06T05:09:47;44.20;;;5.75;;
41709;SDS011;59402;48.396;-4.472;2023-05-06T05:12:12;41.28;;;7.40;;
41709;SDS011;59402;48.396;-4.472;2023-05-06T05:14:42;43.55;;;6.50;;
41709;SDS011;59402;48.396;-4.472;2023-05-06T05:17:09;44.00;;;7.10;;
41709;SDS011;59402;48.396;-4.472;2023-05-06T05:19:36;45.60;;;7.07;;
41709;SDS011;59402;48.396;-4.472;2023-05-06T05:22:03;40.95;;;6.50;;
41709;SDS011;59402;48.396;-4.472;2023-05-06T05:24:30;46.90;;;7.97;;
41709;SDS011;59402;48.396;-4.472;2023-05-06T05:26:56;40.13;;;7.05;;
41709;SDS011;59402;48.396;-4.472;2023-05-06T05:29:22;36.58;;;6.10;;
41709;SDS011;59402;48.396;-4.472;2023-05-06T05:31:49;36.50;;;6.40;;
41709;SDS011;59402;48.396;-4.472;2023-05-06T05:34:15;46.33;;;6.85;;
41709;SDS011;59402;48.396;-4.472;2023-05-06T05:36:41;47.13;;;7.80;;
41709;SDS011;59402;48.396;-4.472;2023-05-06T05:39:09;49.45;;;8.10;;
41709;SDS011;59402;48.396;-4.472;2023-05-06T05:41:41;46.97;;;7.53;;
41709;SDS011;59402;48.396;-4.472;2023-05-06T05:44:07;37.85;;;7.28;;
41709;SDS011;59402;48.396;-4.472;2023-05-06T05:46:33;39.22;;;6.55;;
41709;SDS011;59402;48.396;-4.472;2023-05-06T05:49:00;36.63;;;7.00;;
41709;SDS011;59402;48.396;-4.472;2023-05-06T05:51:26;34.40;;;7.53;;
41709;SDS011;59402;48.396;-4.472;2023-05-06T05:53:52;37.42;;;6.10;;
41709;SDS011;59402;48.396;-4.472;2023-05-06T05:56:20;39.83;;;6.18;;
41709;SDS011;59402;48.396;-4.472;2023-05-06T05:58:47;28.90;;;6.07;;
41709;SDS011;59402;48.396;-4.472;2023-05-06T06:01:13;39.10;;;6.65;;
41709;SDS011;59402;48.396;-4.472;2023-05-06T06:03:39;48.38;;;6.70;;
41709;SDS011;59402;48.396;-4.472;2023-05-06T06:06:05;45.60;;;7.50;;
41709;SDS011;59402;48.396;-4.472;2023-05-06T06:08:32;34.97;;;6.40;;
41709;SDS011;59402;48.396;-4.472;2023-05-06T06:10:58;35.90;;;5.90;;
41709;SDS011;59402;48.396;-4.472;2023-05-06T06:13:31;31.90;;;6.03;;
41709;SDS011;59402;48.396;-4.472;2023-05-06T06:15:58;41.55;;;6.57;;
41709;SDS011;59402;48.396;-4.472;2023-05-06T06:18:23;33.42;;;5.72;;
41709;SDS011;59402;48.396;-4.472;2023-05-06T06:20:49;40.97;;;7.15;;
41709;SDS011;59402;48.396;-4.472;2023-05-06T06:23:15;43.92;;;7.97;;
41709;SDS011;59402;48.396;-4.472;2023-05-06T06:25:41;37.70;;;6.47;;
41709;SDS011;59402;48.396;-4.472;2023-05-06T06:28:06;35.83;;;6.13;;
41709;SDS011;59402;48.396;-4.472;2023-05-06T06:30:32;40.13;;;6.43;;
41709;SDS011;59402;48.396;-4.472;2023-05-06T06:32:58;35.42;;;5.80;;
41709;SDS011;59402;48.396;-4.472;2023-05-06T06:35:25;33.50;;;6.50;;
41709;SDS011;59402;48.396;-4.472;2023-05-06T06:37:52;40.85;;;5.97;;
41709;SDS011;59402;48.396;-4.472;2023-05-06T06:40:18;33.95;;;6.63;;
41709;SDS011;59402;48.396;-4.472;2023-05-06T06:42:44;39.58;;;7.15;;
41709;SDS011;59402;48.396;-4.472;2023-05-06T06:45:37;37.03;;;6.25;;
41709;SDS011;59402;48.396;-4.472;2023-05-06T06:48:02;49.60;;;7.13;;
41709;SDS011;59402;48.396;-4.472;2023-05-06T06:50:28;39.15;;;6.78;;
41709;SDS011;59402;48.396;-4.472;2023-05-06T06:52:54;36.58;;;6.90;;
41709;SDS011;59402;48.396;-4.472;2023-05-06T06:55:20;41.05;;;6.82;;
41709;SDS011;59402;48.396;-4.472;2023-05-06T06:57:46;41.78;;;6.95;;
41709;SDS011;59402;48.396;-4.472;2023-05-06T07:00:12;52.50;;;7.43;;
41709;SDS011;59402;48.396;-4.472;2023-05-06T07:02:38;43.88;;;6.40;;
41709;SDS011;59402;48.396;-4.472;2023-05-06T07:05:03;39.45;;;7.30;;
41709;SDS011;59402;48.396;-4.472;2023-05-06T07:07:29;38.35;;;6.47;;
41709;SDS011;59402;48.396;-4.472;2023-05-06T07:09:55;39.33;;;6.97;;
41709;SDS011;59402;48.396;-4.472;2023-05-06T07:12:21;39.80;;;6.72;;
41709;SDS011;59402;48.396;-4.472;2023-05-06T07:14:48;45.30;;;6.20;;
41709;SDS011;59402;48.396;-4.472;2023-05-06T07:17:14;42.13;;;7.15;;
41709;SDS011;59402;48.396;-4.472;2023-05-06T07:19:40;38.22;;;6.75;;
41709;SDS011;59402;48.396;-4.472;2023-05-06T07:22:06;48.58;;;6.95;;
41709;SDS011;59402;48.396;-4.472;2023-05-06T07:24:31;50.35;;;6.95;;
41709;SDS011;59402;48.396;-4.472;2023-05-06T07:26:57;46.30;;;6.75;;
41709;SDS011;59402;48.396;-4.472;2023-05-06T07:29:24;46.88;;;6.75;;
41709;SDS011;59402;48.396;-4.472;2023-05-06T07:31:50;42.40;;;7.45;;
41709;SDS011;59402;48.396;-4.472;2023-05-06T07:34:16;44.47;;;7.28;;
41709;SDS011;59402;48.396;-4.472;2023-05-06T07:36:42;38.78;;;7.05;;
41709;SDS011;59402;48.396;-4.472;2023-05-06T07:39:09;40.72;;;6.35;;
41709;SDS011;59402;48.396;-4.472;2023-05-06T07:41:36;37.27;;;6.17;;
41709;SDS011;59402;48.396;-4.472;2023-05-06T07:44:02;43.97;;;6.80;;
41709;SDS011;59402;48.396;-4.472;2023-05-06T07:46:28;39.15;;;6.53;;
41709;SDS011;59402;48.396;-4.472;2023-05-06T07:48:54;35.55;;;6.28;;
41709;SDS011;59402;48.396;-4.472;2023-05-06T07:51:20;33.45;;;6.38;;
41709;SDS011;59402;48.396;-4.472;2023-05-06T07:53:46;41.20;;;7.00;;
41709;SDS011;59402;48.396;-4.472;2023-05-06T07:56:11;32.70;;;6.13;;
41709;SDS011;59402;48.396;-4.472;2023-05-06T07:58:37;34.67;;;7.15;;
41709;SDS011;59402;48.396;-4.472;2023-05-06T08:01:03;32.92;;;6.18;;
41709;SDS011;59402;48.396;-4.472;2023-05-06T08:03:29;30.40;;;6.32;;
41709;SDS011;59402;48.396;-4.472;2023-05-06T08:05:55;38.90;;;7.00;;
41709;SDS011;59402;48.396;-4.472;2023-05-06T08:08:21;35.17;;;6.47;;
41709;SDS011;59402;48.396;-4.472;2023-05-06T08:10:47;38.42;;;6.47;;
41709;SDS011;59402;48.396;-4.472;2023-05-06T08:13:13;39.35;;;7.68;;
41709;SDS011;59402;48.396;-4.472;2023-05-06T08:15:39;45.33;;;7.20;;
41709;SDS011;59402;48.396;-4.472;2023-05-06T08:18:05;51.15;;;8.20;;
41709;SDS011;59402;48.396;-4.472;2023-05-06T08:20:31;45.63;;;7.30;;
41709;SDS011;59402;48.396;-4.472;2023-05-06T08:22:56;46.20;;;8.55;;
41709;SDS011;59402;48.396;-4.472;2023-05-06T08:25:24;49.97;;;8.80;;
41709;SDS011;59402;48.396;-4.472;2023-05-06T08:27:50;44.05;;;7.22;;
41709;SDS011;59402;48.396;-4.472;2023-05-06T08:30:16;53.95;;;8.65;;
41709;SDS011;59402;48.396;-4.472;2023-05-06T08:32:41;41.00;;;8.75;;
41709;SDS011;59402;48.396;-4.472;2023-05-06T08:35:07;46.72;;;8.20;;
41709;SDS011;59402;48.396;-4.472;2023-05-06T08:37:33;51.90;;;8.43;;
41709;SDS011;59402;48.396;-4.472;2023-05-06T08:39:59;35.28;;;7.07;;
41709;SDS011;59402;48.396;-4.472;2023-05-06T08:42:25;42.05;;;8.05;;
41709;SDS011;59402;48.396;-4.472;2023-05-06T08:44:51;51.60;;;8.52;;
41709;SDS011;59402;48.396;-4.472;2023-05-06T08:47:17;41.47;;;7.05;;
41709;SDS011;59402;48.396;-4.472;2023-05-06T08:49:47;38.25;;;7.53;;
41709;SDS011;59402;48.396;-4.472;2023-05-06T08:52:13;43.42;;;8.00;;
41709;SDS011;59402;48.396;-4.472;2023-05-06T08:54:39;36.60;;;7.60;;
41709;SDS011;59402;48.396;-4.472;2023-05-06T08:57:05;44.60;;;7.78;;
41709;SDS011;59402;48.396;-4.472;2023-05-06T08:59:35;53.10;;;8.50;;
41709;SDS011;59402;48.396;-4.472;2023-05-06T09:02:05;52.72;;;8.80;;
41709;SDS011;59402;48.396;-4.472;2023-05-06T09:04:31;53.67;;;8.63;;
41709;SDS011;59402;48.396;-4.472;2023-05-06T09:06:57;43.08;;;8.70;;
41709;SDS011;59402;48.396;-4.472;2023-05-06T09:09:23;46.78;;;7.57;;
41709;SDS011;59402;48.396;-4.472;2023-05-06T09:11:49;46.38;;;7.95;;
41709;SDS011;59402;48.396;-4.472;2023-05-06T09:14:21;56.38;;;8.55;;
41709;SDS011;59402;48.396;-4.472;2023-05-06T09:16:48;40.08;;;8.00;;
41709;SDS011;59402;48.396;-4.472;2023-05-06T09:19:15;50.00;;;8.25;;
41709;SDS011;59402;48.396;-4.472;2023-05-06T09:21:45;47.33;;;9.40;;
41709;SDS011;59402;48.396;-4.472;2023-05-06T09:24:14;49.42;;;8.38;;
41709;SDS011;59402;48.396;-4.472;2023-05-06T09:26:40;55.20;;;8.93;;
41709;SDS011;59402;48.396;-4.472;2023-05-06T09:29:07;51.92;;;9.38;;
41709;SDS011;59402;48.396;-4.472;2023-05-06T09:31:38;54.42;;;9.43;;
41709;SDS011;59402;48.396;-4.472;2023-05-06T09:34:06;56.30;;;9.45;;
41709;SDS011;59402;48.396;-4.472;2023-05-06T09:36:32;53.45;;;9.55;;
41709;SDS011;59402;48.396;-4.472;2023-05-06T09:38:58;54.97;;;10.05;;
41709;SDS011;59402;48.396;-4.472;2023-05-06T09:41:24;49.05;;;9.98;;
41709;SDS011;59402;48.396;-4.472;2023-05-06T09:43:53;51.92;;;9.85;;
41709;SDS011;59402;48.396;-4.472;2023-05-06T09:48:55;46.00;;;9.00;;
41709;SDS011;59402;48.396;-4.472;2023-05-06T09:51:21;53.20;;;10.57;;
41709;SDS011;59402;48.396;-4.472;2023-05-06T09:53:47;63.15;;;10.07;;
41709;SDS011;59402;48.396;-4.472;2023-05-06T09:56:13;45.83;;;10.13;;
41709;SDS011;59402;48.396;-4.472;2023-05-06T09:58:40;56.55;;;9.63;;
41709;SDS011;59402;48.396;-4.472;2023-05-06T10:01:06;47.15;;;9.95;;
41709;SDS011;59402;48.396;-4.472;2023-05-06T10:03:33;52.00;;;10.40;;
41709;SDS011;59402;48.396;-4.472;2023-05-06T10:05:59;53.13;;;10.48;;
41709;SDS011;59402;48.396;-4.472;2023-05-06T10:08:26;53.42;;;10.15;;
41709;SDS011;59402;48.396;-4.472;2023-05-06T10:10:52;43.72;;;9.40;;
41709;SDS011;59402;48.396;-4.472;2023-05-06T10:13:18;43.03;;;9.23;;
41709;SDS011;59402;48.396;-4.472;2023-05-06T10:15:46;55.03;;;9.65;;
41709;SDS011;59402;48.396;-4.472;2023-05-06T10:18:16;47.78;;;11.05;;
41709;SDS011;59402;48.396;-4.472;2023-05-06T12:34:52;43.33;;;9.38;;
41709;SDS011;59402;48.396;-4.472;2023-05-06T12:37:27;39.45;;;8.85;;
41709;SDS011;59402;48.396;-4.472;2023-05-06T12:39:54;32.63;;;7.60;;
41709;SDS011;59402;48.396;-4.472;2023-05-06T12:42:20;35.00;;;7.40;;
41709;SDS011;59402;48.396;-4.472;2023-05-06T12:44:46;32.83;;;7.45;;
41709;SDS011;59402;48.396;-4.472;2023-05-06T12:47:22;26.23;;;6.18;;
41709;SDS011;59402;48.396;-4.472;2023-05-06T12:49:55;30.07;;;6.37;;
41709;SDS011;59402;48.396;-4.472;2023-05-06T12:52:23;31.08;;;6.57;;
41709;SDS011;59402;48.396;-4.472;2023-05-06T12:54:50;34.35;;;6.88;;
41709;SDS011;59402;48.396;-4.472;2023-05-06T12:57:16;27.88;;;5.82;;
41709;SDS011;59402;48.396;-4.472;2023-05-06T12:59:43;28.88;;;6.38;;
41709;SDS011;59402;48.396;-4.472;2023-05-06T13:02:12;26.23;;;6.05;;
41709;SDS011;59402;48.396;-4.472;2023-05-06T13:04:38;33.55;;;6.85;;
41709;SDS011;59402;48.396;-4.472;2023-05-06T13:07:04;32.95;;;6.95;;
41709;SDS011;59402;48.396;-4.472;2023-05-06T13:09:30;30.23;;;6.68;;
41709;SDS011;59402;48.396;-4.472;2023-05-06T13:11:57;33.45;;;7.43;;
41709;SDS011;59402;48.396;-4.472;2023-05-06T13:14:23;36.97;;;7.50;;
41709;SDS011;59402;48.396;-4.472;2023-05-06T13:16:49;35.53;;;7.78;;
41709;SDS011;59402;48.396;-4.472;2023-05-06T13:19:15;39.47;;;7.95;;
41709;SDS011;59402;48.396;-4.472;2023-05-06T13:21:41;36.35;;;7.85;;
41709;SDS011;59402;48.396;-4.472;2023-05-06T13:24:07;37.03;;;8.20;;
41709;SDS011;59402;48.396;-4.472;2023-05-06T13:26:34;44.50;;;8.80;;
41709;SDS011;59402;48.396;-4.472;2023-05-06T13:29:00;36.05;;;8.85;;
41709;SDS011;59402;48.396;-4.472;2023-05-06T13:31:26;36.05;;;7.75;;
41709;SDS011;59402;48.396;-4.472;2023-05-06T13:33:53;40.03;;;8.60;;
41709;SDS011;59402;48.396;-4.472;2023-05-06T13:36:20;41.40;;;8.10;;
41709;SDS011;59402;48.396;-4.472;2023-05-06T13:38:46;41.57;;;8.47;;
41709;SDS011;59402;48.396;-4.472;2023-05-06T13:41:12;40.80;;;8.98;;
41709;SDS011;59402;48.396;-4.472;2023-05-06T13:43:38;33.95;;;8.45;;
41709;SDS011;59402;48.396;-4.472;2023-05-06T13:46:03;35.97;;;8.00;;
41709;SDS011;59402;48.396;-4.472;2023-05-06T13:48:29;37.58;;;8.27;;
41709;SDS011;59402;48.396;-4.472;2023-05-06T13:50:55;38.00;;;8.90;;
41709;SDS011;59402;48.396;-4.472;2023-05-06T13:53:20;34.60;;;7.60;;
41709;SDS011;59402;48.396;-4.472;2023-05-06T13:55:46;35.25;;;8.07;;
41709;SDS011;59402;48.396;-4.472;2023-05-06T13:58:12;29.95;;;8.63;;
41709;SDS011;59402;48.396;-4.472;2023-05-06T14:00:38;30.95;;;6.60;;
41709;SDS011;59402;48.396;-4.472;2023-05-06T14:03:03;27.98;;;6.82;;
41709;SDS011;59402;48.396;-4.472;2023-05-06T14:05:29;34.25;;;7.47;;
41709;SDS011;59402;48.396;-4.472;2023-05-06T14:07:56;34.33;;;7.30;;
41709;SDS011;59402;48.396;-4.472;2023-05-06T14:10:22;32.75;;;7.13;;
41709;SDS011;59402;48.396;-4.472;2023-05-06T14:12:48;28.95;;;8.65;;
41709;SDS011;59402;48.396;-4.472;2023-05-06T14:15:13;29.88;;;7.60;;
41709;SDS011;59402;48.396;-4.472;2023-05-06T14:17:39;28.75;;;6.85;;
41709;SDS011;59402;48.396;-4.472;2023-05-06T14:20:06;28.27;;;6.32;;
41709;SDS011;59402;48.396;-4.472;2023-05-06T14:22:33;32.05;;;7.53;;
41709;SDS011;59402;48.396;-4.472;2023-05-06T14:24:59;31.38;;;6.85;;
41709;SDS011;59402;48.396;-4.472;2023-05-06T14:27:25;28.60;;;6.28;;
41709;SDS011;59402;48.396;-4.472;2023-05-06T14:29:51;27.63;;;6.68;;
41709;SDS011;59402;48.396;-4.472;2023-05-06T14:32:16;30.23;;;6.45;;
41709;SDS011;59402;48.396;-4.472;2023-05-06T14:34:42;29.25;;;6.93;;
41709;SDS011;59402;48.396;-4.472;2023-05-06T14:37:08;26.60;;;6.88;;
41709;SDS011;59402;48.396;-4.472;2023-05-06T14:39:34;36.70;;;8.02;;
41709;SDS011;59402;48.396;-4.472;2023-05-06T14:41:59;29.77;;;7.65;;
41709;SDS011;59402;48.396;-4.472;2023-05-06T14:44:25;41.15;;;8.25;;
41709;SDS011;59402;48.396;-4.472;2023-05-06T14:46:51;28.02;;;7.03;;
41709;SDS011;59402;48.396;-4.472;2023-05-06T14:49:16;31.02;;;8.50;;
41709;SDS011;59402;48.396;-4.472;2023-05-06T14:51:42;35.55;;;7.65;;
41709;SDS011;59402;48.396;-4.472;2023-05-06T14:54:08;36.17;;;7.80;;
41709;SDS011;59402;48.396;-4.472;2023-05-06T14:56:34;24.73;;;7.38;;
41709;SDS011;59402;48.396;-4.472;2023-05-06T14:59:00;35.03;;;8.70;;
41709;SDS011;59402;48.396;-4.472;2023-05-06T15:01:26;29.52;;;8.45;;
41709;SDS011;59402;48.396;-4.472;2023-05-06T15:03:51;42.97;;;10.10;;
41709;SDS011;59402;48.396;-4.472;2023-05-06T15:06:20;43.65;;;11.13;;
41709;SDS011;59402;48.396;-4.472;2023-05-06T15:08:46;35.40;;;9.80;;
41709;SDS011;59402;48.396;-4.472;2023-05-06T15:11:12;39.50;;;10.35;;
41709;SDS011;59402;48.396;-4.472;2023-05-06T15:13:37;39.85;;;10.70;;
41709;SDS011;59402;48.396;-4.472;2023-05-06T15:16:03;40.30;;;10.13;;
41709;SDS011;59402;48.396;-4.472;2023-05-06T15:18:29;37.78;;;9.63;;
41709;SDS011;59402;48.396;-4.472;2023-05-06T15:20:55;33.70;;;9.70;;
41709;SDS011;59402;48.396;-4.472;2023-05-06T15:23:25;33.70;;;9.63;;
41709;SDS011;59402;48.396;-4.472;2023-05-06T15:25:53;33.97;;;8.93;;
41709;SDS011;59402;48.396;-4.472;2023-05-06T15:28:20;46.72;;;10.55;;
41709;SDS011;59402;48.396;-4.472;2023-05-06T15:30:46;27.33;;;8.75;;
41709;SDS011;59402;48.396;-4.472;2023-05-06T15:33:12;37.55;;;11.32;;
41709;SDS011;59402;48.396;-4.472;2023-05-06T15:35:37;33.60;;;10.55;;
41709;SDS011;59402;48.396;-4.472;2023-05-06T15:38:03;29.95;;;9.55;;
41709;SDS011;59402;48.396;-4.472;2023-05-06T15:40:29;31.88;;;9.98;;
41709;SDS011;59402;48.396;-4.472;2023-05-06T15:42:55;23.67;;;8.63;;
41709;SDS011;59402;48.396;-4.472;2023-05-06T15:45:22;29.15;;;9.23;;
41709;SDS011;59402;48.396;-4.472;2023-05-06T15:47:48;25.48;;;8.38;;
41709;SDS011;59402;48.396;-4.472;2023-05-06T15:50:14;31.42;;;8.73;;
41709;SDS011;59402;48.396;-4.472;2023-05-06T15:52:40;33.78;;;9.32;;
41709;SDS011;59402;48.396;-4.472;2023-05-06T15:55:07;29.55;;;9.27;;
41709;SDS011;59402;48.396;-4.472;2023-05-06T15:57:33;26.27;;;8.65;;
41709;SDS011;59402;48.396;-4.472;2023-05-06T15:59:59;24.92;;;9.32;;
41709;SDS011;59402;48.396;-4.472;2023-05-06T16:02:26;27.85;;;9.80;;
41709;SDS011;59402;48.396;-4.472;2023-05-06T16:04:52;31.50;;;9.75;;
41709;SDS011;59402;48.396;-4.472;2023-05-06T16:07:17;32.85;;;10.45;;
41709;SDS011;59402;48.396;-4.472;2023-05-06T16:09:43;35.30;;;10.88;;
41709;SDS011;59402;48.396;-4.472;2023-05-06T16:12:09;39.55;;;10.75;;
41709;SDS011;59402;48.396;-4.472;2023-05-06T16:14:35;35.80;;;11.27;;
41709;SDS011;59402;48.396;-4.472;2023-05-06T16:17:00;30.77;;;10.32;;
41709;SDS011;59402;48.396;-4.472;2023-05-06T16:19:26;39.47;;;10.30;;
41709;SDS011;59402;48.396;-4.472;2023-05-06T16:21:54;28.42;;;9.70;;
41709;SDS011;59402;48.396;-4.472;2023-05-06T16:24:20;40.55;;;10.70;;
41709;SDS011;59402;48.396;-4.472;2023-05-06T16:26:46;33.10;;;10.85;;
41709;SDS011;59402;48.396;-4.472;2023-05-06T16:29:12;35.58;;;10.23;;
41709;SDS011;59402;48.396;-4.472;2023-05-06T16:31:41;40.83;;;11.43;;
41709;SDS011;59402;48.396;-4.472;2023-05-06T16:34:07;33.80;;;10.88;;
41709;SDS011;59402;48.396;-4.472;2023-05-06T16:36:32;33.63;;;10.05;;
41709;SDS011;59402;48.396;-4.472;2023-05-06T16:38:58;27.45;;;9.23;;
41709;SDS011;59402;48.396;-4.472;2023-05-06T16:41:24;45.03;;;11.20;;
41709;SDS011;59402;48.396;-4.472;2023-05-06T16:43:49;47.47;;;11.45;;
41709;SDS011;59402;48.396;-4.472;2023-05-06T16:46:15;39.17;;;10.25;;